Impacts TAF Board
For situational awareness. Not to be used for flight planning purposes.
IDs:

KTUS - Tucson Intl Arpt, AZ, US

Issued at 1727 UTC 01 Feb 2023
Updated at 2317 UTC 01 Feb 2023
Potential Impact None Slight Moderate High
Time2253Z 02/00Z 02/01Z 02/02Z 02/03Z 02/04Z 02/05Z 02/06Z 02/07Z 02/08Z 02/09Z 02/10Z 02/11Z 02/12Z>>
Type OBS PRVL PRVL PRVL PRVL PRVL PRVL PRVL PRVL PRVL PRVL PRVL PRVL PRVL
VIS 10 >6 >6 >6 >6 >6 >6 >6 >6 >6 >6 >6 >6 >6
CIG 90 -- -- -- -- -- -- -- -- -- -- -- -- --
Cover BKN SCT SCT SCT SCT SCT SCT SKC SKC SKC SKC SKC SKC SKC
FltCat VFR VFR VFR VFR VFR VFR VFR VFR VFR VFR VFR VFR VFR VFR
WX -- -- -- -- -- -- -- -- -- -- -- -- -- --
WDir 280 310 310 310 310 310 310 160 160 160 160 160 160 160
WSpd 11 7 7 7 7 7 7 5 5 5 5 5 5 5
WGst -- -- -- -- -- -- -- -- -- -- -- -- -- --
WSHgt -- -- -- -- -- -- -- -- -- -- -- -- -- --
WSDir -- -- -- -- -- -- -- -- -- -- -- -- -- --
WSSpd -- -- -- -- -- -- -- -- -- -- -- -- -- --
R03/21
XWnd 9 7 7 7 7 7 7 -5 -5 -5 -5 -5 -5 -5
HWnd -6 -1 -1 -1 -1 -1 -1 -2 -2 -2 -2 -2 -2 -2
R11/29
XWnd -6 -1 -1 -1 -1 -1 -1 -2 -2 -2 -2 -2 -2 -2
HWnd -9 -7 -7 -7 -7 -7 -7 5 5 5 5 5 5 5

NOTE: LAMP data beyond the time of the TAF data is denoted as LAMP in Type and colored magenta.

Raw TAF
KTUS 011727Z 0118/0218 31007KT P6SM SCT060 SCT100
  FM020600 16005KT P6SM SKC


Raw METAR
KTUS 012253Z 28011KT 10SM BKN090 16/02 A3004 RMK AO2 SLP159 T01560017
KTUS 012153Z 28010KT 10SM BKN090 16/03 A3003 RMK AO2 SLP153 T01610028
KTUS 012053Z VRB04KT 10SM FEW080 16/04 A3003 RMK AO2 SLP154 T01560044 56021

METAR Board
Radar Display
Forecast Discussion

For situational awareness. Not to be used for flight planning purposes.